createdAt,value
2018-07-17T00:01:17.248Z,28.32
2018-07-17T00:03:51.573Z,28.33
2018-07-17T00:06:26.021Z,28.33
2018-07-17T00:08:58.560Z,28.19
2018-07-17T00:11:31.159Z,28.06
2018-07-17T00:14:03.140Z,28.02
2018-07-17T00:16:34.359Z,28.34
2018-07-17T00:19:06.609Z,28.36
2018-07-17T00:21:37.791Z,28.32
2018-07-17T00:24:20.509Z,28.14
2018-07-17T00:26:57.592Z,27.92
2018-07-17T00:29:30.190Z,27.68
2018-07-17T00:32:02.857Z,27.59
2018-07-17T00:34:35.950Z,27.57
2018-07-17T00:37:07.652Z,27.61
2018-07-17T00:39:39.355Z,27.60
2018-07-17T00:42:14.640Z,27.65
2018-07-17T00:44:46.697Z,27.66
2018-07-17T00:47:19.157Z,27.63
2018-07-17T00:49:54.353Z,27.71
2018-07-17T00:52:27.876Z,27.90
2018-07-17T00:55:00.209Z,27.74
2018-07-17T00:57:32.495Z,27.74
2018-07-17T01:00:09.258Z,27.71
2018-07-17T01:02:45.724Z,27.55
2018-07-17T01:05:23.095Z,27.45
2018-07-17T01:08:00.654Z,27.47
2018-07-17T01:10:37.051Z,27.38
2018-07-17T01:13:12.591Z,27.29
2018-07-17T01:15:44.983Z,27.29
2018-07-17T01:18:18.466Z,27.37
2018-07-17T01:20:50.499Z,27.37
2018-07-17T01:23:21.992Z,27.37
2018-07-17T01:25:54.702Z,27.28
2018-07-17T01:28:27.510Z,27.13
2018-07-17T01:30:58.745Z,27.08
2018-07-17T01:33:29.917Z,26.90
2018-07-17T01:36:01.622Z,26.81
2018-07-17T01:38:32.961Z,26.80
2018-07-17T01:41:05.768Z,26.82
2018-07-17T01:43:37.083Z,26.87
2018-07-17T01:46:08.274Z,26.86
2018-07-17T01:48:39.978Z,26.69
2018-07-17T01:51:11.220Z,26.61
2018-07-17T01:53:42.399Z,26.40
2018-07-17T01:56:13.885Z,26.29
2018-07-17T01:58:44.150Z,26.20
2018-07-17T02:02:22.418Z,26.09
2018-07-17T02:04:53.884Z,25.94
2018-07-17T02:07:28.505Z,25.87
2018-07-17T02:10:00.151Z,25.79
2018-07-17T02:12:31.715Z,25.78
2018-07-17T02:15:06.370Z,25.72
2018-07-17T02:17:37.568Z,25.70
2018-07-17T02:20:09.185Z,25.73
2018-07-17T02:22:40.817Z,25.66
2018-07-17T02:25:12.574Z,25.67
2018-07-17T02:27:44.247Z,25.75
2018-07-17T02:30:16.272Z,25.78
2018-07-17T02:32:48.730Z,25.80
2018-07-17T02:35:21.642Z,25.80
2018-07-17T02:37:54.005Z,25.75
2018-07-17T02:40:26.110Z,25.86
2018-07-17T02:42:58.368Z,25.88
2018-07-17T02:45:29.539Z,25.80
2018-07-17T02:48:02.016Z,26.07
2018-07-17T02:50:33.541Z,26.07
2018-07-17T02:53:05.765Z,25.98
2018-07-17T02:55:42.217Z,25.86
2018-07-17T02:58:16.965Z,26.06
2018-07-17T03:00:49.062Z,26.17
2018-07-17T03:03:21.445Z,26.11
2018-07-17T03:05:53.649Z,26.14
2018-07-17T03:08:24.982Z,26.17
2018-07-17T03:10:56.162Z,26.11
2018-07-17T03:13:28.247Z,26.11
2018-07-17T03:15:59.428Z,25.87
2018-07-17T03:18:31.536Z,25.80
2018-07-17T03:21:01.868Z,25.71
2018-07-17T03:23:33.081Z,25.62
2018-07-17T03:26:03.825Z,25.66
2018-07-17T03:28:34.953Z,25.66
2018-07-17T03:31:06.165Z,25.63
2018-07-17T03:33:37.706Z,25.62
2018-07-17T03:36:10.683Z,25.72
2018-07-17T03:38:40.981Z,25.74
2018-07-17T03:41:14.885Z,25.83
2018-07-17T03:43:47.197Z,25.85
2018-07-17T03:46:18.548Z,25.80
2018-07-17T03:48:50.610Z,25.84
2018-07-17T03:51:22.501Z,25.80
2018-07-17T03:53:53.117Z,25.93
2018-07-17T03:56:23.700Z,25.97
2018-07-17T03:58:55.809Z,25.86
2018-07-17T04:01:27.333Z,25.97
2018-07-17T04:03:58.540Z,26.15
2018-07-17T04:06:31.022Z,26.41
2018-07-17T04:09:08.090Z,26.65
2018-07-17T04:11:39.724Z,26.82
2018-07-17T04:14:12.649Z,26.92
2018-07-17T04:16:50.965Z,27.22
2018-07-17T04:19:24.481Z,27.63
2018-07-17T04:21:57.224Z,28.02
2018-07-17T04:24:28.456Z,28.42
2018-07-17T04:26:59.784Z,28.92
2018-07-17T04:29:30.985Z,29.20
2018-07-17T04:32:02.478Z,29.22
2018-07-17T04:34:33.451Z,29.23
2018-07-17T04:37:06.619Z,29.32
2018-07-17T04:39:40.561Z,29.85
2018-07-17T04:42:10.869Z,30.24
2018-07-17T04:44:49.232Z,30.63
2018-07-17T04:47:21.657Z,31.11
2018-07-17T04:49:54.199Z,31.52
2018-07-17T04:52:31.032Z,31.40
2018-07-17T04:55:03.639Z,31.70
2018-07-17T04:57:35.815Z,31.99
2018-07-17T05:00:11.211Z,32.06
2018-07-17T05:02:47.205Z,32.17
2018-07-17T05:05:19.696Z,32.65
2018-07-17T05:07:51.813Z,33.08
2018-07-17T05:10:23.977Z,33.32
2018-07-17T05:13:00.578Z,33.46
2018-07-17T05:15:34.312Z,33.37
2018-07-17T05:18:06.908Z,33.59
2018-07-17T05:20:39.930Z,33.90
2018-07-17T05:23:13.475Z,34.05
2018-07-17T05:25:45.493Z,34.26
2018-07-17T05:28:16.224Z,34.50
2018-07-17T05:30:50.911Z,34.77
2018-07-17T05:33:24.010Z,34.91
2018-07-17T05:35:59.043Z,34.89
2018-07-17T05:38:31.196Z,34.77
2018-07-17T05:41:03.407Z,34.76
2018-07-17T05:43:34.693Z,34.90
2018-07-17T05:46:06.372Z,35.04
2018-07-17T05:49:00.157Z,35.28
2018-07-17T05:51:32.670Z,35.50
2018-07-17T05:54:05.162Z,35.52
2018-07-17T05:56:35.771Z,35.45
2018-07-17T05:59:06.096Z,35.37
2018-07-17T06:01:36.868Z,35.34
2018-07-17T06:04:07.077Z,35.72
2018-07-17T06:06:39.881Z,35.46
2018-07-17T06:09:11.251Z,35.92
2018-07-17T06:11:42.552Z,36.06
2018-07-17T06:14:13.884Z,36.19
2018-07-17T06:16:44.177Z,36.60
2018-07-17T06:19:17.721Z,37.24
2018-07-17T06:21:48.805Z,37.49
2018-07-17T06:24:19.958Z,37.51
2018-07-17T06:27:03.631Z,37.43
2018-07-17T06:29:34.097Z,37.72
2018-07-17T06:32:05.474Z,37.34
2018-07-17T06:34:35.804Z,37.29
2018-07-17T06:37:09.496Z,37.57
2018-07-17T06:39:41.016Z,37.94
2018-07-17T06:42:12.442Z,38.38
2018-07-17T06:44:42.898Z,38.45
2018-07-17T06:47:13.988Z,38.67
2018-07-17T06:49:48.080Z,38.56
2018-07-17T06:52:21.585Z,38.71
2018-07-17T06:54:58.464Z,38.86
2018-07-17T06:57:36.214Z,39.06
2018-07-17T07:00:10.867Z,39.22
2018-07-17T07:02:42.659Z,39.18
2018-07-17T07:05:13.252Z,39.47
2018-07-17T07:07:50.121Z,39.73
2018-07-17T07:10:21.349Z,39.94
2018-07-17T07:12:55.028Z,39.89
2018-07-17T07:15:26.317Z,39.78
2018-07-17T07:17:59.755Z,39.87
2018-07-17T07:20:30.375Z,40.10
2018-07-17T07:23:00.729Z,39.85
2018-07-17T07:25:32.253Z,39.62
2018-07-17T07:28:06.491Z,39.82
2018-07-17T07:30:36.881Z,39.70
2018-07-17T07:33:11.042Z,39.66
2018-07-17T07:35:42.511Z,39.40
2018-07-17T07:38:13.680Z,39.45
2018-07-17T07:40:45.217Z,39.68
2018-07-17T07:43:16.788Z,40.15
2018-07-17T07:45:48.084Z,40.35
2018-07-17T07:48:20.641Z,40.64
2018-07-17T07:50:55.135Z,40.40
2018-07-17T07:53:28.677Z,40.55
2018-07-17T07:56:02.586Z,40.67
2018-07-17T07:58:37.349Z,40.66
2018-07-17T08:01:09.109Z,41.09
2018-07-17T08:03:43.485Z,41.35
2018-07-17T08:06:14.806Z,41.35
2018-07-17T08:08:47.228Z,41.66
2018-07-17T08:11:36.058Z,41.60
2018-07-17T08:14:08.917Z,41.25
2018-07-17T08:16:40.555Z,41.64
2018-07-17T08:22:12.275Z,41.69
2018-07-17T08:24:45.438Z,41.79
2018-07-17T08:27:18.837Z,42.25
2018-07-17T08:29:54.799Z,42.49
2018-07-17T08:32:29.188Z,42.12
2018-07-17T08:35:10.061Z,42.18
2018-07-17T08:37:41.421Z,42.14
2018-07-17T08:40:13.943Z,41.83
2018-07-17T08:42:55.944Z,41.73
2018-07-17T08:45:30.821Z,41.59
2018-07-17T08:48:04.749Z,41.66
2018-07-17T08:50:37.864Z,41.57
2018-07-17T08:53:15.536Z,41.46
2018-07-17T08:55:50.729Z,41.65
2018-07-17T08:58:23.335Z,42.02
2018-07-17T09:00:54.745Z,42.25
2018-07-17T09:03:32.541Z,42.05
2018-07-17T09:06:05.535Z,42.36
2018-07-17T09:08:39.232Z,42.45
2018-07-17T09:11:11.409Z,42.82
2018-07-17T09:13:43.908Z,43.00
2018-07-17T09:18:54.979Z,42.94
2018-07-17T09:21:26.285Z,42.65
2018-07-17T09:24:00.560Z,42.52
2018-07-17T09:26:33.240Z,42.65
2018-07-17T09:29:06.352Z,42.86
2018-07-17T09:31:39.351Z,42.82
2018-07-17T09:34:12.798Z,42.73
2018-07-17T09:36:45.827Z,42.71
2018-07-17T09:39:17.097Z,42.99
2018-07-17T09:41:49.235Z,43.38
2018-07-17T09:44:24.017Z,43.34
2018-07-17T09:46:59.788Z,43.05
2018-07-17T09:49:31.840Z,43.25
2018-07-17T09:52:05.609Z,43.41
2018-07-17T09:54:38.532Z,43.23
2018-07-17T09:57:15.345Z,43.74
2018-07-17T09:59:48.370Z,44.20
2018-07-17T10:02:26.211Z,44.33
2018-07-17T10:05:00.886Z,43.97
2018-07-17T10:07:36.603Z,43.61
2018-07-17T10:10:15.425Z,43.92
2018-07-17T10:12:51.355Z,44.22
2018-07-17T10:15:26.063Z,43.65
2018-07-17T10:18:00.020Z,44.01
2018-07-17T10:20:32.583Z,44.07
2018-07-17T10:23:10.096Z,44.11
2018-07-17T10:25:42.691Z,44.51
2018-07-17T10:28:15.757Z,44.70
2018-07-17T10:30:49.454Z,44.48
2018-07-17T10:33:22.423Z,44.57
2018-07-17T10:35:55.059Z,44.59
2018-07-17T10:38:33.010Z,43.74
2018-07-17T10:41:06.578Z,43.39
2018-07-17T10:43:39.535Z,43.28
2018-07-17T10:46:11.241Z,43.48
2018-07-17T10:48:45.787Z,43.71
2018-07-17T10:51:19.057Z,43.18
2018-07-17T10:53:57.623Z,43.26
2018-07-17T10:56:30.557Z,43.86
2018-07-17T10:59:09.665Z,44.40
2018-07-17T11:01:44.631Z,44.57
2018-07-17T11:04:22.497Z,45.18
2018-07-17T11:07:07.333Z,45.46
2018-07-17T11:09:45.653Z,45.05
2018-07-17T11:12:23.593Z,44.64
2018-07-17T11:14:57.873Z,44.28
2018-07-17T11:17:33.112Z,44.14
2018-07-17T11:20:05.400Z,43.88
2018-07-17T11:22:51.468Z,43.18
2018-07-17T11:25:25.074Z,42.44
2018-07-17T11:27:58.427Z,42.22
2018-07-17T11:30:54.705Z,41.67
2018-07-17T11:33:29.938Z,41.12
2018-07-17T11:36:19.186Z,41.05
2018-07-17T11:38:53.372Z,41.22
2018-07-17T11:41:26.521Z,41.72
2018-07-17T11:43:58.276Z,42.36
2018-07-17T11:46:32.828Z,42.63
2018-07-17T11:49:11.368Z,42.97
2018-07-17T11:51:43.580Z,43.58
2018-07-17T11:54:16.517Z,43.76
2018-07-17T11:56:49.294Z,43.27
2018-07-17T11:59:22.571Z,42.91
2018-07-17T12:01:58.324Z,41.73
2018-07-17T12:04:32.165Z,41.50
2018-07-17T12:07:03.978Z,42.36
2018-07-17T12:09:38.620Z,43.05
2018-07-17T12:12:10.709Z,43.44
2018-07-17T12:14:44.401Z,43.65
2018-07-17T12:17:19.633Z,44.25
2018-07-17T12:19:53.350Z,44.54
2018-07-17T12:22:29.951Z,44.31
2018-07-17T12:25:03.289Z,43.83
2018-07-17T12:27:38.805Z,42.71
2018-07-17T12:30:14.617Z,42.00
2018-07-17T12:32:50.489Z,42.43
2018-07-17T12:35:22.453Z,42.20
2018-07-17T12:38:01.667Z,42.33
2018-07-17T12:44:33.464Z,42.59
2018-07-17T12:47:05.739Z,42.73
2018-07-17T12:49:41.233Z,42.46
2018-07-17T12:52:13.896Z,41.94
2018-07-17T12:54:47.316Z,41.97
2018-07-17T12:57:19.312Z,42.14
2018-07-17T12:59:52.776Z,42.58
2018-07-17T13:02:25.083Z,43.23
2018-07-17T13:04:56.323Z,43.82
2018-07-17T13:07:30.443Z,44.03
2018-07-17T13:10:06.381Z,43.93
2018-07-17T13:12:46.336Z,44.33
2018-07-17T13:15:19.227Z,44.63
2018-07-17T13:17:53.858Z,44.52
2018-07-17T13:20:26.634Z,44.44
2018-07-17T13:22:58.659Z,44.58
2018-07-17T13:25:31.884Z,44.78
2018-07-17T13:28:06.916Z,45.14
2018-07-17T13:30:38.248Z,44.96
2018-07-17T13:33:16.130Z,45.05
2018-07-17T13:35:47.487Z,45.08
2018-07-17T13:38:20.568Z,45.33
2018-07-17T13:41:07.793Z,45.51
2018-07-17T13:43:39.958Z,45.78
2018-07-17T13:46:17.279Z,46.05
2018-07-17T13:48:52.211Z,46.09
2018-07-17T13:51:24.792Z,45.56
2018-07-17T13:53:57.675Z,45.93
2018-07-17T13:56:40.327Z,46.45
2018-07-17T13:59:13.835Z,47.37
2018-07-17T14:01:46.050Z,47.71
2018-07-17T14:04:18.001Z,47.90
2018-07-17T14:06:50.566Z,48.07
2018-07-17T14:09:23.594Z,48.66
2018-07-17T14:11:55.669Z,48.88
2018-07-17T14:14:26.966Z,48.80
2018-07-17T14:17:00.274Z,48.14
2018-07-17T14:19:32.372Z,46.83
2018-07-17T14:22:04.553Z,45.75
2018-07-17T14:24:39.424Z,45.21
2018-07-17T14:27:12.352Z,44.97
2018-07-17T14:29:46.010Z,44.42
2018-07-17T14:35:18.877Z,43.18
2018-07-17T14:37:50.758Z,43.39
2018-07-17T14:40:25.301Z,43.53
2018-07-17T14:43:03.626Z,43.60
2018-07-17T14:45:37.754Z,43.61
2018-07-17T14:48:13.874Z,43.38
2018-07-17T14:50:47.933Z,43.04
2018-07-17T14:53:53.511Z,43.02
2018-07-17T14:56:27.418Z,42.64
2018-07-17T14:58:59.516Z,42.27
2018-07-17T15:01:31.488Z,41.80
2018-07-17T15:04:03.601Z,41.46
2018-07-17T15:06:36.914Z,41.22
2018-07-17T15:09:11.390Z,40.99
2018-07-17T15:11:43.263Z,40.87
2018-07-17T15:14:28.596Z,40.71
2018-07-17T15:17:26.795Z,40.66
2018-07-17T15:20:06.077Z,41.13
2018-07-17T15:22:45.641Z,41.53
2018-07-17T15:25:19.277Z,41.80
2018-07-17T15:27:53.771Z,41.63
2018-07-17T15:30:33.077Z,41.83
2018-07-17T15:33:12.584Z,41.58
2018-07-17T15:35:45.874Z,40.95
2018-07-17T15:38:24.555Z,40.15
2018-07-17T15:41:04.156Z,39.13
2018-07-17T15:43:40.724Z,38.81
2018-07-17T15:46:14.652Z,38.75
2018-07-17T15:48:57.980Z,38.67
2018-07-17T15:54:16.506Z,37.85
2018-07-17T15:56:51.747Z,37.70
2018-07-17T15:59:30.010Z,37.57
2018-07-17T16:04:47.581Z,37.50
2018-07-17T16:07:59.217Z,37.63
2018-07-17T16:10:40.343Z,37.70
2018-07-17T16:13:20.302Z,37.54
2018-07-17T16:16:02.522Z,37.56
2018-07-17T16:18:40.830Z,37.47
2018-07-17T16:21:16.703Z,37.28
2018-07-17T16:24:21.283Z,36.50
2018-07-17T16:29:11.919Z,37.13
2018-07-17T16:31:52.766Z,37.17
2018-07-17T16:34:28.673Z,37.08
2018-07-17T16:37:03.490Z,36.89
2018-07-17T16:39:36.331Z,36.90
2018-07-17T16:45:04.187Z,36.96
2018-07-17T16:53:45.589Z,36.93
2018-07-17T16:56:33.415Z,36.87
2018-07-17T16:59:12.104Z,37.07
2018-07-17T17:04:52.891Z,37.58
2018-07-17T17:07:29.326Z,38.11
2018-07-17T17:10:01.795Z,38.42
2018-07-17T17:12:41.573Z,38.57
2018-07-17T17:15:21.463Z,38.68
2018-07-17T17:17:59.294Z,38.80
2018-07-17T17:20:33.272Z,38.41
2018-07-17T17:23:07.803Z,38.79
2018-07-17T17:25:40.992Z,38.89
2018-07-17T17:28:15.424Z,38.90
2018-07-17T17:30:51.270Z,38.90
2018-07-17T17:33:27.683Z,38.72
2018-07-17T17:39:11.812Z,39.01
2018-07-17T17:41:47.253Z,39.09
2018-07-17T17:44:22.377Z,39.15
2018-07-17T17:46:59.353Z,39.18
2018-07-17T17:49:36.498Z,39.64
2018-07-17T17:52:11.147Z,40.20
2018-07-17T17:54:45.722Z,40.55
2018-07-17T17:57:23.412Z,40.77
2018-07-17T17:59:56.469Z,40.98
2018-07-17T18:02:31.656Z,41.02
2018-07-17T18:05:10.265Z,40.95
2018-07-17T18:07:48.174Z,40.66
2018-07-17T18:10:24.433Z,40.39
2018-07-17T18:13:00.766Z,39.90
2018-07-17T18:15:37.127Z,39.40
2018-07-17T18:18:13.128Z,39.12
2018-07-17T18:20:52.052Z,39.28
2018-07-17T18:23:27.903Z,39.17
2018-07-17T18:26:02.551Z,38.93
2018-07-17T18:28:37.797Z,38.57
2018-07-17T18:31:11.119Z,38.21
2018-07-17T18:33:42.393Z,38.39
2018-07-17T18:36:15.390Z,38.32
2018-07-17T18:38:49.450Z,38.20
2018-07-17T18:41:22.544Z,37.93
2018-07-17T18:44:13.628Z,37.63
2018-07-17T18:46:51.243Z,37.30
2018-07-17T18:49:38.282Z,37.12
2018-07-17T18:58:55.734Z,36.22
2018-07-17T19:01:33.046Z,35.88
2018-07-17T19:04:09.032Z,35.78
2018-07-17T19:09:18.865Z,35.60
2018-07-17T19:17:17.011Z,35.54
2018-07-17T19:19:52.275Z,35.41
2018-07-17T19:22:38.406Z,35.34
2018-07-17T19:25:27.250Z,34.77
2018-07-17T19:28:10.574Z,35.27
2018-07-17T19:31:09.271Z,35.26
2018-07-17T19:33:47.569Z,35.47
2018-07-17T19:36:27.724Z,35.20
2018-07-17T19:39:03.228Z,35.16
2018-07-17T19:41:39.683Z,34.86
2018-07-17T19:44:18.445Z,34.63
2018-07-17T19:46:52.473Z,34.49
2018-07-17T19:49:31.698Z,34.38
2018-07-17T19:52:06.361Z,34.40
2018-07-17T19:54:48.595Z,34.26
2018-07-17T19:57:47.352Z,34.05
2018-07-17T20:00:36.604Z,33.89
2018-07-17T20:03:28.896Z,33.83
2018-07-17T20:06:05.202Z,33.85
2018-07-17T20:08:40.946Z,33.58
2018-07-17T20:11:31.594Z,33.39
2018-07-17T20:14:06.358Z,33.29
2018-07-17T20:16:40.302Z,33.16
2018-07-17T20:21:58.635Z,33.08
2018-07-17T20:24:36.270Z,33.03
2018-07-17T20:27:15.439Z,33.07
2018-07-17T20:29:49.853Z,33.00
2018-07-17T20:32:24.443Z,33.12
2018-07-17T20:35:03.472Z,32.78
2018-07-17T20:37:45.102Z,32.82
2018-07-17T20:40:19.070Z,32.77
2018-07-17T20:42:56.831Z,32.88
2018-07-17T20:45:37.484Z,32.77
2018-07-17T20:48:17.475Z,32.62
2018-07-17T20:50:59.457Z,32.54
2018-07-17T20:55:47.520Z,32.58
2018-07-17T20:58:23.358Z,32.58
2018-07-17T21:01:02.494Z,32.58
2018-07-17T21:03:37.687Z,32.54
2018-07-17T21:06:14.539Z,32.56
2018-07-17T21:08:52.190Z,32.56
2018-07-17T21:11:28.433Z,32.53
2018-07-17T21:14:02.576Z,32.31
2018-07-17T21:16:44.265Z,32.44
2018-07-17T21:19:20.272Z,32.34
2018-07-17T21:21:59.645Z,32.34
2018-07-17T21:24:41.337Z,32.15
2018-07-17T21:27:35.323Z,31.98
2018-07-17T21:30:29.754Z,31.98
2018-07-17T21:33:10.251Z,31.90
2018-07-17T21:35:48.835Z,32.02
2018-07-17T21:38:28.187Z,32.05
2018-07-17T21:51:28.301Z,32.14
2018-07-17T21:54:08.258Z,32.04
2018-07-17T21:56:57.417Z,32.13
2018-07-17T21:59:30.634Z,32.01
2018-07-17T22:02:06.648Z,31.98
2018-07-17T22:04:50.351Z,32.14
2018-07-17T22:07:43.691Z,32.13
2018-07-17T22:10:18.471Z,32.14
2018-07-17T22:12:59.266Z,32.03
2018-07-17T22:15:50.485Z,32.01
2018-07-17T22:18:34.371Z,32.02
2018-07-17T22:21:21.452Z,31.93
2018-07-17T22:24:04.641Z,32.00
2018-07-17T22:26:38.621Z,31.95
2018-07-17T22:29:22.241Z,32.01
2018-07-17T22:31:59.645Z,31.96
2018-07-17T22:34:41.266Z,32.03
2018-07-17T22:37:19.802Z,32.15
2018-07-17T22:39:55.108Z,32.08
2018-07-17T22:42:29.608Z,32.01
2018-07-17T22:45:08.655Z,32.03
2018-07-17T22:47:42.360Z,32.11
2018-07-17T22:50:20.369Z,32.09
2018-07-17T22:52:54.303Z,32.16
2018-07-17T22:55:30.090Z,32.06
2018-07-17T22:58:04.287Z,31.96
2018-07-17T23:00:39.115Z,32.05
2018-07-17T23:03:12.220Z,32.24
2018-07-17T23:05:46.992Z,32.22
2018-07-17T23:08:23.758Z,32.33
2018-07-17T23:10:59.194Z,32.22
2018-07-17T23:13:32.461Z,31.79
2018-07-17T23:16:09.262Z,31.46
2018-07-17T23:18:50.573Z,31.38
2018-07-17T23:21:25.965Z,31.29
2018-07-17T23:24:05.089Z,31.18
2018-07-17T23:26:38.986Z,31.21
2018-07-17T23:29:12.518Z,31.46
2018-07-17T23:31:45.975Z,31.47
2018-07-17T23:34:23.047Z,31.24
2018-07-17T23:36:57.449Z,31.01
2018-07-17T23:39:34.501Z,30.91
2018-07-17T23:42:07.545Z,30.27
2018-07-17T23:44:42.732Z,30.81
2018-07-17T23:47:15.207Z,30.83
2018-07-17T23:49:55.401Z,30.65
2018-07-17T23:52:27.542Z,30.52
2018-07-17T23:55:03.426Z,30.42
2018-07-17T23:57:39.031Z,30.37
